sensor_id;sensor_type;location;lat;lon;timestamp;P1;durP1;ratioP1;P2;durP2;ratioP2
77938;SDS011;67136;47.546;21.630;2024-01-07T00:02:43;19.48;;;11.18;;
77938;SDS011;67136;47.546;21.630;2024-01-07T00:05:46;18.92;;;10.95;;
77938;SDS011;67136;47.546;21.630;2024-01-07T00:08:49;23.05;;;11.25;;
77938;SDS011;67136;47.546;21.630;2024-01-07T00:11:52;23.23;;;11.20;;
77938;SDS011;67136;47.546;21.630;2024-01-07T00:14:54;19.52;;;11.27;;
77938;SDS011;67136;47.546;21.630;2024-01-07T00:17:57;22.13;;;12.10;;
77938;SDS011;67136;47.546;21.630;2024-01-07T00:21:00;23.67;;;12.70;;
77938;SDS011;67136;47.546;21.630;2024-01-07T00:24:02;21.90;;;11.70;;
77938;SDS011;67136;47.546;21.630;2024-01-07T00:27:05;21.63;;;11.90;;
77938;SDS011;67136;47.546;21.630;2024-01-07T00:30:08;22.77;;;12.43;;
77938;SDS011;67136;47.546;21.630;2024-01-07T00:33:11;26.00;;;13.05;;
77938;SDS011;67136;47.546;21.630;2024-01-07T00:36:14;26.98;;;12.55;;
77938;SDS011;67136;47.546;21.630;2024-01-07T00:39:16;23.48;;;12.32;;
77938;SDS011;67136;47.546;21.630;2024-01-07T00:42:19;25.70;;;12.90;;
77938;SDS011;67136;47.546;21.630;2024-01-07T00:45:21;24.65;;;12.93;;
77938;SDS011;67136;47.546;21.630;2024-01-07T00:48:24;25.10;;;12.77;;
77938;SDS011;67136;47.546;21.630;2024-01-07T00:51:27;20.15;;;12.27;;
77938;SDS011;67136;47.546;21.630;2024-01-07T00:54:30;26.00;;;11.55;;
77938;SDS011;67136;47.546;21.630;2024-01-07T00:57:32;27.10;;;13.10;;
77938;SDS011;67136;47.546;21.630;2024-01-07T01:00:36;22.15;;;12.90;;
77938;SDS011;67136;47.546;21.630;2024-01-07T01:03:38;23.33;;;12.20;;
77938;SDS011;67136;47.546;21.630;2024-01-07T01:06:41;23.52;;;12.98;;
77938;SDS011;67136;47.546;21.630;2024-01-07T01:09:44;23.50;;;13.13;;
77938;SDS011;67136;47.546;21.630;2024-01-07T01:12:47;20.57;;;11.77;;
77938;SDS011;67136;47.546;21.630;2024-01-07T01:15:50;21.48;;;11.88;;
77938;SDS011;67136;47.546;21.630;2024-01-07T01:18:53;24.55;;;12.10;;
77938;SDS011;67136;47.546;21.630;2024-01-07T01:21:56;24.67;;;12.40;;
77938;SDS011;67136;47.546;21.630;2024-01-07T01:24:59;22.65;;;11.70;;
77938;SDS011;67136;47.546;21.630;2024-01-07T01:28:02;24.23;;;13.10;;
77938;SDS011;67136;47.546;21.630;2024-01-07T01:31:05;23.95;;;13.13;;
77938;SDS011;67136;47.546;21.630;2024-01-07T01:34:09;24.55;;;12.95;;
77938;SDS011;67136;47.546;21.630;2024-01-07T01:37:12;22.33;;;12.37;;
77938;SDS011;67136;47.546;21.630;2024-01-07T01:40:16;23.73;;;12.75;;
77938;SDS011;67136;47.546;21.630;2024-01-07T01:43:25;24.40;;;13.17;;
77938;SDS011;67136;47.546;21.630;2024-01-07T01:46:29;28.42;;;13.20;;
77938;SDS011;67136;47.546;21.630;2024-01-07T01:49:32;24.30;;;13.13;;
77938;SDS011;67136;47.546;21.630;2024-01-07T01:52:38;25.65;;;12.82;;
77938;SDS011;67136;47.546;21.630;2024-01-07T01:55:42;24.60;;;12.70;;
77938;SDS011;67136;47.546;21.630;2024-01-07T01:58:45;27.97;;;13.20;;
77938;SDS011;67136;47.546;21.630;2024-01-07T02:01:48;23.75;;;12.75;;
77938;SDS011;67136;47.546;21.630;2024-01-07T02:04:51;24.55;;;12.30;;
77938;SDS011;67136;47.546;21.630;2024-01-07T02:07:55;26.30;;;13.23;;
77938;SDS011;67136;47.546;21.630;2024-01-07T02:10:58;23.58;;;11.52;;
77938;SDS011;67136;47.546;21.630;2024-01-07T02:14:16;24.47;;;11.63;;
77938;SDS011;67136;47.546;21.630;2024-01-07T02:17:19;21.45;;;12.07;;
77938;SDS011;67136;47.546;21.630;2024-01-07T02:20:23;22.70;;;12.30;;
77938;SDS011;67136;47.546;21.630;2024-01-07T02:23:26;25.02;;;12.27;;
77938;SDS011;67136;47.546;21.630;2024-01-07T02:26:29;21.52;;;11.95;;
77938;SDS011;67136;47.546;21.630;2024-01-07T02:29:32;20.10;;;11.17;;
77938;SDS011;67136;47.546;21.630;2024-01-07T02:32:35;23.42;;;12.00;;
77938;SDS011;67136;47.546;21.630;2024-01-07T02:35:40;20.60;;;11.10;;
77938;SDS011;67136;47.546;21.630;2024-01-07T02:38:43;25.23;;;11.30;;
77938;SDS011;67136;47.546;21.630;2024-01-07T02:41:45;20.10;;;11.12;;
77938;SDS011;67136;47.546;21.630;2024-01-07T02:44:48;22.87;;;10.97;;
77938;SDS011;67136;47.546;21.630;2024-01-07T02:47:51;18.60;;;10.88;;
77938;SDS011;67136;47.546;21.630;2024-01-07T02:50:55;19.75;;;10.93;;
77938;SDS011;67136;47.546;21.630;2024-01-07T02:53:58;18.55;;;10.57;;
77938;SDS011;67136;47.546;21.630;2024-01-07T02:57:00;25.45;;;11.07;;
77938;SDS011;67136;47.546;21.630;2024-01-07T03:00:03;23.50;;;11.27;;
77938;SDS011;67136;47.546;21.630;2024-01-07T03:03:07;20.92;;;11.30;;
77938;SDS011;67136;47.546;21.630;2024-01-07T03:06:09;22.20;;;10.88;;
77938;SDS011;67136;47.546;21.630;2024-01-07T03:09:12;18.45;;;10.60;;
77938;SDS011;67136;47.546;21.630;2024-01-07T03:12:15;23.30;;;11.30;;
77938;SDS011;67136;47.546;21.630;2024-01-07T03:15:18;18.80;;;10.37;;
77938;SDS011;67136;47.546;21.630;2024-01-07T03:18:21;22.35;;;10.65;;
77938;SDS011;67136;47.546;21.630;2024-01-07T03:21:24;17.80;;;9.85;;
77938;SDS011;67136;47.546;21.630;2024-01-07T03:24:27;22.25;;;10.15;;
77938;SDS011;67136;47.546;21.630;2024-01-07T03:27:30;19.52;;;10.10;;
77938;SDS011;67136;47.546;21.630;2024-01-07T03:30:33;21.03;;;10.37;;
77938;SDS011;67136;47.546;21.630;2024-01-07T03:33:40;18.80;;;9.82;;
77938;SDS011;67136;47.546;21.630;2024-01-07T03:36:43;15.35;;;9.30;;
77938;SDS011;67136;47.546;21.630;2024-01-07T03:39:46;19.33;;;9.95;;
77938;SDS011;67136;47.546;21.630;2024-01-07T03:42:49;18.05;;;9.27;;
77938;SDS011;67136;47.546;21.630;2024-01-07T03:45:52;17.43;;;9.20;;
77938;SDS011;67136;47.546;21.630;2024-01-07T03:48:55;19.35;;;9.98;;
77938;SDS011;67136;47.546;21.630;2024-01-07T03:51:58;19.30;;;9.85;;
77938;SDS011;67136;47.546;21.630;2024-01-07T03:55:00;17.70;;;10.48;;
77938;SDS011;67136;47.546;21.630;2024-01-07T03:58:04;20.52;;;9.70;;
77938;SDS011;67136;47.546;21.630;2024-01-07T04:01:07;19.27;;;9.70;;
77938;SDS011;67136;47.546;21.630;2024-01-07T04:04:10;22.65;;;10.48;;
77938;SDS011;67136;47.546;21.630;2024-01-07T04:07:12;16.42;;;9.25;;
77938;SDS011;67136;47.546;21.630;2024-01-07T04:10:18;19.10;;;9.65;;
77938;SDS011;67136;47.546;21.630;2024-01-07T04:13:21;18.23;;;9.65;;
77938;SDS011;67136;47.546;21.630;2024-01-07T04:16:24;19.57;;;9.23;;
77938;SDS011;67136;47.546;21.630;2024-01-07T04:19:26;20.00;;;9.75;;
77938;SDS011;67136;47.546;21.630;2024-01-07T04:22:29;18.83;;;10.57;;
77938;SDS011;67136;47.546;21.630;2024-01-07T04:25:31;17.90;;;9.52;;
77938;SDS011;67136;47.546;21.630;2024-01-07T04:28:34;17.85;;;9.60;;
77938;SDS011;67136;47.546;21.630;2024-01-07T04:31:37;19.77;;;9.27;;
77938;SDS011;67136;47.546;21.630;2024-01-07T04:34:40;19.67;;;10.38;;
77938;SDS011;67136;47.546;21.630;2024-01-07T04:37:43;18.42;;;9.77;;
77938;SDS011;67136;47.546;21.630;2024-01-07T04:40:46;20.42;;;10.40;;
77938;SDS011;67136;47.546;21.630;2024-01-07T04:43:49;20.20;;;10.57;;
77938;SDS011;67136;47.546;21.630;2024-01-07T04:46:51;21.40;;;9.60;;
77938;SDS011;67136;47.546;21.630;2024-01-07T04:49:54;21.80;;;10.25;;
77938;SDS011;67136;47.546;21.630;2024-01-07T04:52:57;20.58;;;10.70;;
77938;SDS011;67136;47.546;21.630;2024-01-07T04:56:00;21.77;;;10.40;;
77938;SDS011;67136;47.546;21.630;2024-01-07T04:59:03;18.55;;;10.15;;
77938;SDS011;67136;47.546;21.630;2024-01-07T05:02:05;20.63;;;9.93;;
77938;SDS011;67136;47.546;21.630;2024-01-07T05:05:08;19.62;;;10.25;;
77938;SDS011;67136;47.546;21.630;2024-01-07T05:08:11;19.23;;;10.07;;
77938;SDS011;67136;47.546;21.630;2024-01-07T05:11:13;18.58;;;9.40;;
77938;SDS011;67136;47.546;21.630;2024-01-07T05:14:16;20.20;;;9.95;;
77938;SDS011;67136;47.546;21.630;2024-01-07T05:17:19;17.93;;;9.93;;
77938;SDS011;67136;47.546;21.630;2024-01-07T05:20:21;20.50;;;10.15;;
77938;SDS011;67136;47.546;21.630;2024-01-07T05:23:24;20.37;;;10.23;;
77938;SDS011;67136;47.546;21.630;2024-01-07T05:26:26;21.95;;;10.98;;
77938;SDS011;67136;47.546;21.630;2024-01-07T05:29:29;25.92;;;11.73;;
77938;SDS011;67136;47.546;21.630;2024-01-07T05:32:32;22.53;;;10.77;;
77938;SDS011;67136;47.546;21.630;2024-01-07T05:35:36;20.75;;;10.77;;
77938;SDS011;67136;47.546;21.630;2024-01-07T05:38:38;19.33;;;10.95;;
77938;SDS011;67136;47.546;21.630;2024-01-07T05:41:41;19.95;;;11.05;;
77938;SDS011;67136;47.546;21.630;2024-01-07T05:44:44;23.15;;;10.40;;
77938;SDS011;67136;47.546;21.630;2024-01-07T05:47:46;23.10;;;11.30;;
77938;SDS011;67136;47.546;21.630;2024-01-07T05:50:49;21.67;;;11.15;;
77938;SDS011;67136;47.546;21.630;2024-01-07T05:53:52;19.83;;;10.20;;
77938;SDS011;67136;47.546;21.630;2024-01-07T05:56:55;20.55;;;10.80;;
77938;SDS011;67136;47.546;21.630;2024-01-07T05:59:57;23.00;;;11.43;;
77938;SDS011;67136;47.546;21.630;2024-01-07T06:03:00;19.40;;;10.10;;
77938;SDS011;67136;47.546;21.630;2024-01-07T06:06:03;18.85;;;9.75;;
77938;SDS011;67136;47.546;21.630;2024-01-07T06:09:06;17.33;;;9.70;;
77938;SDS011;67136;47.546;21.630;2024-01-07T06:12:09;15.50;;;8.95;;
77938;SDS011;67136;47.546;21.630;2024-01-07T06:15:11;18.80;;;9.25;;
77938;SDS011;67136;47.546;21.630;2024-01-07T06:18:14;14.63;;;8.47;;
77938;SDS011;67136;47.546;21.630;2024-01-07T06:21:17;15.07;;;7.60;;
77938;SDS011;67136;47.546;21.630;2024-01-07T06:24:20;15.68;;;7.90;;
77938;SDS011;67136;47.546;21.630;2024-01-07T06:27:23;15.30;;;7.50;;
77938;SDS011;67136;47.546;21.630;2024-01-07T06:30:26;13.25;;;7.97;;
77938;SDS011;67136;47.546;21.630;2024-01-07T06:33:28;10.93;;;6.33;;
77938;SDS011;67136;47.546;21.630;2024-01-07T06:36:31;12.00;;;6.20;;
77938;SDS011;67136;47.546;21.630;2024-01-07T06:39:34;11.05;;;5.65;;
77938;SDS011;67136;47.546;21.630;2024-01-07T06:42:38;8.43;;;4.62;;
77938;SDS011;67136;47.546;21.630;2024-01-07T06:45:40;8.23;;;5.10;;
77938;SDS011;67136;47.546;21.630;2024-01-07T06:48:43;9.17;;;4.70;;
77938;SDS011;67136;47.546;21.630;2024-01-07T06:51:50;7.47;;;4.47;;
77938;SDS011;67136;47.546;21.630;2024-01-07T06:54:53;6.65;;;3.97;;
77938;SDS011;67136;47.546;21.630;2024-01-07T06:57:56;7.82;;;3.85;;
77938;SDS011;67136;47.546;21.630;2024-01-07T07:00:58;7.65;;;3.55;;
77938;SDS011;67136;47.546;21.630;2024-01-07T07:04:01;5.47;;;3.03;;
77938;SDS011;67136;47.546;21.630;2024-01-07T07:07:04;6.82;;;3.65;;
77938;SDS011;67136;47.546;21.630;2024-01-07T07:10:06;6.82;;;3.80;;
77938;SDS011;67136;47.546;21.630;2024-01-07T07:13:10;6.75;;;3.58;;
77938;SDS011;67136;47.546;21.630;2024-01-07T07:16:14;5.90;;;3.12;;
77938;SDS011;67136;47.546;21.630;2024-01-07T07:19:17;4.47;;;2.90;;
77938;SDS011;67136;47.546;21.630;2024-01-07T07:22:19;3.85;;;2.53;;
77938;SDS011;67136;47.546;21.630;2024-01-07T07:25:22;4.05;;;2.70;;
77938;SDS011;67136;47.546;21.630;2024-01-07T07:28:25;3.22;;;2.25;;
77938;SDS011;67136;47.546;21.630;2024-01-07T07:31:28;4.25;;;2.33;;
77938;SDS011;67136;47.546;21.630;2024-01-07T07:34:31;5.10;;;2.30;;
77938;SDS011;67136;47.546;21.630;2024-01-07T07:37:35;3.12;;;1.92;;
77938;SDS011;67136;47.546;21.630;2024-01-07T07:40:38;3.42;;;1.90;;
77938;SDS011;67136;47.546;21.630;2024-01-07T07:43:41;3.97;;;2.22;;
77938;SDS011;67136;47.546;21.630;2024-01-07T07:46:43;3.03;;;1.85;;
77938;SDS011;67136;47.546;21.630;2024-01-07T07:49:46;4.37;;;2.00;;
77938;SDS011;67136;47.546;21.630;2024-01-07T07:52:49;2.65;;;1.70;;
77938;SDS011;67136;47.546;21.630;2024-01-07T07:55:52;3.00;;;1.98;;
77938;SDS011;67136;47.546;21.630;2024-01-07T07:58:54;3.55;;;1.98;;
77938;SDS011;67136;47.546;21.630;2024-01-07T08:01:57;2.22;;;1.45;;
77938;SDS011;67136;47.546;21.630;2024-01-07T08:05:01;2.50;;;1.70;;
77938;SDS011;67136;47.546;21.630;2024-01-07T08:08:03;2.80;;;1.60;;
77938;SDS011;67136;47.546;21.630;2024-01-07T08:11:07;1.80;;;1.12;;
77938;SDS011;67136;47.546;21.630;2024-01-07T08:14:10;2.15;;;1.23;;
77938;SDS011;67136;47.546;21.630;2024-01-07T08:17:13;2.25;;;1.27;;
77938;SDS011;67136;47.546;21.630;2024-01-07T08:20:16;2.00;;;0.90;;
77938;SDS011;67136;47.546;21.630;2024-01-07T08:23:18;1.70;;;1.00;;
77938;SDS011;67136;47.546;21.630;2024-01-07T08:26:21;1.40;;;1.00;;
77938;SDS011;67136;47.546;21.630;2024-01-07T08:29:25;1.45;;;0.80;;
77938;SDS011;67136;47.546;21.630;2024-01-07T08:32:28;1.33;;;0.90;;
77938;SDS011;67136;47.546;21.630;2024-01-07T08:35:31;1.30;;;1.13;;
77938;SDS011;67136;47.546;21.630;2024-01-07T08:38:34;1.62;;;0.80;;
77938;SDS011;67136;47.546;21.630;2024-01-07T08:41:37;2.17;;;0.80;;
77938;SDS011;67136;47.546;21.630;2024-01-07T08:44:40;2.25;;;0.70;;
77938;SDS011;67136;47.546;21.630;2024-01-07T08:47:43;1.20;;;0.60;;
77938;SDS011;67136;47.546;21.630;2024-01-07T08:50:46;4.17;;;0.73;;
77938;SDS011;67136;47.546;21.630;2024-01-07T08:53:49;1.33;;;0.77;;
77938;SDS011;67136;47.546;21.630;2024-01-07T08:56:52;1.62;;;0.90;;
77938;SDS011;67136;47.546;21.630;2024-01-07T08:59:54;2.62;;;0.85;;
77938;SDS011;67136;47.546;21.630;2024-01-07T09:02:57;1.12;;;0.75;;
77938;SDS011;67136;47.546;21.630;2024-01-07T09:06:00;0.87;;;0.73;;
77938;SDS011;67136;47.546;21.630;2024-01-07T09:09:02;1.00;;;0.60;;
77938;SDS011;67136;47.546;21.630;2024-01-07T09:12:08;1.52;;;0.70;;
77938;SDS011;67136;47.546;21.630;2024-01-07T09:15:11;0.93;;;0.60;;
77938;SDS011;67136;47.546;21.630;2024-01-07T09:18:13;2.10;;;0.90;;
77938;SDS011;67136;47.546;21.630;2024-01-07T09:21:16;2.93;;;0.60;;
77938;SDS011;67136;47.546;21.630;2024-01-07T09:24:19;1.65;;;0.82;;
77938;SDS011;67136;47.546;21.630;2024-01-07T09:27:22;1.40;;;0.70;;
77938;SDS011;67136;47.546;21.630;2024-01-07T09:30:25;1.80;;;1.12;;
77938;SDS011;67136;47.546;21.630;2024-01-07T09:33:28;1.70;;;0.95;;
77938;SDS011;67136;47.546;21.630;2024-01-07T09:36:31;1.50;;;0.70;;
77938;SDS011;67136;47.546;21.630;2024-01-07T09:39:33;1.20;;;0.60;;
77938;SDS011;67136;47.546;21.630;2024-01-07T09:42:42;1.80;;;0.82;;
77938;SDS011;67136;47.546;21.630;2024-01-07T09:45:45;1.95;;;0.70;;
77938;SDS011;67136;47.546;21.630;2024-01-07T09:48:50;2.12;;;0.75;;
77938;SDS011;67136;47.546;21.630;2024-01-07T09:51:52;1.33;;;0.93;;
77938;SDS011;67136;47.546;21.630;2024-01-07T09:55:05;1.55;;;0.75;;
77938;SDS011;67136;47.546;21.630;2024-01-07T09:58:11;1.20;;;0.70;;
77938;SDS011;67136;47.546;21.630;2024-01-07T10:01:14;1.45;;;0.88;;
77938;SDS011;67136;47.546;21.630;2024-01-07T10:04:18;1.77;;;1.00;;
77938;SDS011;67136;47.546;21.630;2024-01-07T10:07:20;2.03;;;0.70;;
77938;SDS011;67136;47.546;21.630;2024-01-07T10:10:23;1.98;;;0.90;;
77938;SDS011;67136;47.546;21.630;2024-01-07T10:13:26;1.92;;;1.00;;
77938;SDS011;67136;47.546;21.630;2024-01-07T10:16:29;3.87;;;1.17;;
77938;SDS011;67136;47.546;21.630;2024-01-07T10:19:31;1.60;;;0.85;;
77938;SDS011;67136;47.546;21.630;2024-01-07T10:22:38;1.73;;;1.00;;
77938;SDS011;67136;47.546;21.630;2024-01-07T10:25:40;1.42;;;0.88;;
77938;SDS011;67136;47.546;21.630;2024-01-07T10:28:43;1.75;;;1.10;;
77938;SDS011;67136;47.546;21.630;2024-01-07T10:31:46;1.67;;;1.08;;
77938;SDS011;67136;47.546;21.630;2024-01-07T10:34:49;1.52;;;0.82;;
77938;SDS011;67136;47.546;21.630;2024-01-07T10:37:58;1.27;;;0.73;;
77938;SDS011;67136;47.546;21.630;2024-01-07T10:41:02;1.60;;;0.98;;
77938;SDS011;67136;47.546;21.630;2024-01-07T10:44:10;1.73;;;0.90;;
77938;SDS011;67136;47.546;21.630;2024-01-07T10:47:13;1.98;;;1.00;;
77938;SDS011;67136;47.546;21.630;2024-01-07T10:50:17;2.78;;;0.98;;
77938;SDS011;67136;47.546;21.630;2024-01-07T10:53:21;1.10;;;0.73;;
77938;SDS011;67136;47.546;21.630;2024-01-07T10:56:30;1.65;;;0.93;;
77938;SDS011;67136;47.546;21.630;2024-01-07T10:59:41;1.52;;;0.98;;
77938;SDS011;67136;47.546;21.630;2024-01-07T11:05:59;2.40;;;1.10;;
77938;SDS011;67136;47.546;21.630;2024-01-07T11:12:21;1.33;;;1.00;;
77938;SDS011;67136;47.546;21.630;2024-01-07T11:18:50;1.58;;;0.95;;
77938;SDS011;67136;47.546;21.630;2024-01-07T11:25:29;1.57;;;1.00;;
77938;SDS011;67136;47.546;21.630;2024-01-07T11:31:53;1.58;;;0.93;;
77938;SDS011;67136;47.546;21.630;2024-01-07T11:34:56;1.85;;;1.10;;
77938;SDS011;67136;47.546;21.630;2024-01-07T11:38:02;1.67;;;1.00;;
77938;SDS011;67136;47.546;21.630;2024-01-07T11:41:05;1.97;;;1.00;;
77938;SDS011;67136;47.546;21.630;2024-01-07T11:44:10;3.33;;;1.00;;
77938;SDS011;67136;47.546;21.630;2024-01-07T11:47:17;1.98;;;1.10;;
77938;SDS011;67136;47.546;21.630;2024-01-07T11:50:20;2.20;;;0.95;;
77938;SDS011;67136;47.546;21.630;2024-01-07T11:53:24;2.17;;;1.17;;
77938;SDS011;67136;47.546;21.630;2024-01-07T11:56:28;1.83;;;1.00;;
77938;SDS011;67136;47.546;21.630;2024-01-07T11:59:31;5.00;;;1.20;;
77938;SDS011;67136;47.546;21.630;2024-01-07T12:02:34;2.65;;;1.20;;
77938;SDS011;67136;47.546;21.630;2024-01-07T12:05:36;1.35;;;0.85;;
77938;SDS011;67136;47.546;21.630;2024-01-07T12:08:45;2.25;;;1.30;;
77938;SDS011;67136;47.546;21.630;2024-01-07T12:11:48;2.73;;;1.20;;
77938;SDS011;67136;47.546;21.630;2024-01-07T12:14:51;2.03;;;1.40;;
77938;SDS011;67136;47.546;21.630;2024-01-07T12:17:57;2.00;;;1.23;;
77938;SDS011;67136;47.546;21.630;2024-01-07T12:21:01;3.05;;;1.75;;
77938;SDS011;67136;47.546;21.630;2024-01-07T12:24:04;2.37;;;1.30;;
77938;SDS011;67136;47.546;21.630;2024-01-07T12:27:06;2.20;;;1.50;;
77938;SDS011;67136;47.546;21.630;2024-01-07T12:30:10;2.40;;;1.50;;
77938;SDS011;67136;47.546;21.630;2024-01-07T12:33:19;2.25;;;1.40;;
77938;SDS011;67136;47.546;21.630;2024-01-07T12:36:23;5.07;;;1.60;;
77938;SDS011;67136;47.546;21.630;2024-01-07T12:39:26;3.35;;;1.37;;
77938;SDS011;67136;47.546;21.630;2024-01-07T12:42:30;2.10;;;1.47;;
77938;SDS011;67136;47.546;21.630;2024-01-07T12:45:33;2.05;;;1.50;;
77938;SDS011;67136;47.546;21.630;2024-01-07T12:48:36;2.47;;;1.62;;
77938;SDS011;67136;47.546;21.630;2024-01-07T12:51:39;1.83;;;1.02;;
77938;SDS011;67136;47.546;21.630;2024-01-07T12:54:42;1.90;;;1.20;;
77938;SDS011;67136;47.546;21.630;2024-01-07T12:57:44;2.23;;;1.30;;
77938;SDS011;67136;47.546;21.630;2024-01-07T13:00:47;1.90;;;1.25;;
77938;SDS011;67136;47.546;21.630;2024-01-07T13:03:50;1.95;;;1.40;;
77938;SDS011;67136;47.546;21.630;2024-01-07T13:06:53;2.17;;;1.20;;
77938;SDS011;67136;47.546;21.630;2024-01-07T13:09:55;2.70;;;1.50;;
77938;SDS011;67136;47.546;21.630;2024-01-07T13:12:58;1.87;;;1.40;;
77938;SDS011;67136;47.546;21.630;2024-01-07T13:16:12;2.45;;;1.50;;
77938;SDS011;67136;47.546;21.630;2024-01-07T13:19:15;2.92;;;1.50;;
77938;SDS011;67136;47.546;21.630;2024-01-07T13:22:18;4.75;;;1.55;;
77938;SDS011;67136;47.546;21.630;2024-01-07T13:25:20;3.95;;;1.60;;
77938;SDS011;67136;47.546;21.630;2024-01-07T13:28:23;2.40;;;1.60;;
77938;SDS011;67136;47.546;21.630;2024-01-07T13:31:26;4.28;;;1.62;;
77938;SDS011;67136;47.546;21.630;2024-01-07T13:34:28;2.40;;;1.50;;
77938;SDS011;67136;47.546;21.630;2024-01-07T13:37:32;2.30;;;1.40;;
77938;SDS011;67136;47.546;21.630;2024-01-07T13:40:35;2.60;;;1.48;;
77938;SDS011;67136;47.546;21.630;2024-01-07T13:43:39;2.17;;;1.30;;
77938;SDS011;67136;47.546;21.630;2024-01-07T13:46:45;3.15;;;1.60;;
77938;SDS011;67136;47.546;21.630;2024-01-07T13:49:49;2.78;;;1.50;;
77938;SDS011;67136;47.546;21.630;2024-01-07T13:52:52;2.28;;;1.58;;
77938;SDS011;67136;47.546;21.630;2024-01-07T13:55:55;2.17;;;1.40;;
77938;SDS011;67136;47.546;21.630;2024-01-07T13:58:58;2.23;;;1.30;;
77938;SDS011;67136;47.546;21.630;2024-01-07T14:02:01;3.05;;;1.70;;
77938;SDS011;67136;47.546;21.630;2024-01-07T14:05:06;2.28;;;1.55;;
77938;SDS011;67136;47.546;21.630;2024-01-07T14:08:11;3.42;;;1.70;;
77938;SDS011;67136;47.546;21.630;2024-01-07T14:11:13;2.25;;;1.50;;
77938;SDS011;67136;47.546;21.630;2024-01-07T14:14:16;3.30;;;1.87;;
77938;SDS011;67136;47.546;21.630;2024-01-07T14:17:19;3.45;;;1.65;;
77938;SDS011;67136;47.546;21.630;2024-01-07T14:20:21;3.10;;;1.60;;
77938;SDS011;67136;47.546;21.630;2024-01-07T14:23:24;3.62;;;2.05;;
77938;SDS011;67136;47.546;21.630;2024-01-07T14:26:26;3.17;;;1.87;;
77938;SDS011;67136;47.546;21.630;2024-01-07T14:29:29;3.53;;;1.83;;
77938;SDS011;67136;47.546;21.630;2024-01-07T14:32:32;3.15;;;1.62;;
77938;SDS011;67136;47.546;21.630;2024-01-07T14:35:35;5.50;;;2.37;;
77938;SDS011;67136;47.546;21.630;2024-01-07T14:38:38;3.53;;;1.95;;
77938;SDS011;67136;47.546;21.630;2024-01-07T14:41:41;3.53;;;1.83;;
77938;SDS011;67136;47.546;21.630;2024-01-07T14:44:43;5.53;;;1.87;;
77938;SDS011;67136;47.546;21.630;2024-01-07T14:47:52;4.07;;;1.80;;
77938;SDS011;67136;47.546;21.630;2024-01-07T14:50:56;6.57;;;2.20;;
77938;SDS011;67136;47.546;21.630;2024-01-07T14:53:58;4.62;;;2.40;;
77938;SDS011;67136;47.546;21.630;2024-01-07T14:57:02;3.90;;;2.00;;
77938;SDS011;67136;47.546;21.630;2024-01-07T15:00:06;3.80;;;2.10;;
77938;SDS011;67136;47.546;21.630;2024-01-07T15:03:10;5.03;;;1.90;;
77938;SDS011;67136;47.546;21.630;2024-01-07T15:06:15;4.95;;;2.60;;
77938;SDS011;67136;47.546;21.630;2024-01-07T15:09:18;4.72;;;2.47;;
77938;SDS011;67136;47.546;21.630;2024-01-07T15:12:20;5.05;;;2.62;;
77938;SDS011;67136;47.546;21.630;2024-01-07T15:15:24;6.83;;;2.93;;
77938;SDS011;67136;47.546;21.630;2024-01-07T15:18:31;5.50;;;2.85;;
77938;SDS011;67136;47.546;21.630;2024-01-07T15:21:38;4.72;;;2.83;;
77938;SDS011;67136;47.546;21.630;2024-01-07T15:24:41;6.65;;;3.42;;
77938;SDS011;67136;47.546;21.630;2024-01-07T15:27:44;5.00;;;3.00;;
77938;SDS011;67136;47.546;21.630;2024-01-07T15:30:47;6.63;;;2.87;;
77938;SDS011;67136;47.546;21.630;2024-01-07T15:33:50;4.57;;;2.40;;
77938;SDS011;67136;47.546;21.630;2024-01-07T15:36:52;8.77;;;2.90;;
77938;SDS011;67136;47.546;21.630;2024-01-07T15:39:55;6.07;;;2.62;;
77938;SDS011;67136;47.546;21.630;2024-01-07T15:42:58;5.65;;;2.62;;
77938;SDS011;67136;47.546;21.630;2024-01-07T15:46:02;4.20;;;2.70;;
77938;SDS011;67136;47.546;21.630;2024-01-07T15:49:06;5.50;;;2.65;;
77938;SDS011;67136;47.546;21.630;2024-01-07T15:52:10;7.00;;;2.83;;
77938;SDS011;67136;47.546;21.630;2024-01-07T15:55:13;4.65;;;2.67;;
77938;SDS011;67136;47.546;21.630;2024-01-07T15:58:16;5.47;;;2.78;;
77938;SDS011;67136;47.546;21.630;2024-01-07T16:01:19;6.43;;;2.43;;
77938;SDS011;67136;47.546;21.630;2024-01-07T16:04:22;6.43;;;2.90;;
77938;SDS011;67136;47.546;21.630;2024-01-07T16:07:28;8.27;;;2.80;;
77938;SDS011;67136;47.546;21.630;2024-01-07T16:10:31;10.98;;;2.87;;
77938;SDS011;67136;47.546;21.630;2024-01-07T16:13:33;5.60;;;2.83;;
77938;SDS011;67136;47.546;21.630;2024-01-07T16:16:36;5.83;;;2.97;;
77938;SDS011;67136;47.546;21.630;2024-01-07T16:19:43;7.85;;;3.00;;
77938;SDS011;67136;47.546;21.630;2024-01-07T16:22:46;6.45;;;2.70;;
77938;SDS011;67136;47.546;21.630;2024-01-07T16:25:48;4.45;;;2.33;;
77938;SDS011;67136;47.546;21.630;2024-01-07T16:28:51;5.85;;;2.92;;
77938;SDS011;67136;47.546;21.630;2024-01-07T16:31:55;5.10;;;2.33;;
77938;SDS011;67136;47.546;21.630;2024-01-07T16:34:57;6.28;;;2.20;;
77938;SDS011;67136;47.546;21.630;2024-01-07T16:38:00;5.40;;;2.60;;
77938;SDS011;67136;47.546;21.630;2024-01-07T16:41:06;5.00;;;2.40;;
77938;SDS011;67136;47.546;21.630;2024-01-07T16:44:10;5.30;;;2.72;;
77938;SDS011;67136;47.546;21.630;2024-01-07T16:47:14;6.72;;;2.90;;
77938;SDS011;67136;47.546;21.630;2024-01-07T16:50:17;6.43;;;2.83;;
77938;SDS011;67136;47.546;21.630;2024-01-07T16:53:26;4.25;;;2.30;;
77938;SDS011;67136;47.546;21.630;2024-01-07T16:56:29;5.47;;;2.62;;
77938;SDS011;67136;47.546;21.630;2024-01-07T16:59:32;5.70;;;2.83;;
77938;SDS011;67136;47.546;21.630;2024-01-07T17:02:35;6.50;;;2.87;;
77938;SDS011;67136;47.546;21.630;2024-01-07T17:05:38;7.80;;;2.70;;
77938;SDS011;67136;47.546;21.630;2024-01-07T17:08:41;6.00;;;2.58;;
77938;SDS011;67136;47.546;21.630;2024-01-07T17:11:44;5.22;;;2.65;;
77938;SDS011;67136;47.546;21.630;2024-01-07T17:14:47;6.50;;;3.10;;
77938;SDS011;67136;47.546;21.630;2024-01-07T17:17:54;6.80;;;2.60;;
77938;SDS011;67136;47.546;21.630;2024-01-07T17:20:57;6.05;;;2.85;;
77938;SDS011;67136;47.546;21.630;2024-01-07T17:24:00;6.70;;;2.70;;
77938;SDS011;67136;47.546;21.630;2024-01-07T17:27:02;6.70;;;3.33;;
77938;SDS011;67136;47.546;21.630;2024-01-07T17:30:05;5.50;;;2.55;;
77938;SDS011;67136;47.546;21.630;2024-01-07T17:33:08;5.20;;;2.55;;
77938;SDS011;67136;47.546;21.630;2024-01-07T17:36:13;5.57;;;3.22;;
77938;SDS011;67136;47.546;21.630;2024-01-07T17:39:17;6.75;;;3.10;;
77938;SDS011;67136;47.546;21.630;2024-01-07T17:42:20;7.07;;;3.03;;
77938;SDS011;67136;47.546;21.630;2024-01-07T17:45:24;7.20;;;3.20;;
77938;SDS011;67136;47.546;21.630;2024-01-07T17:48:26;7.05;;;3.20;;
77938;SDS011;67136;47.546;21.630;2024-01-07T17:51:29;6.72;;;3.05;;
77938;SDS011;67136;47.546;21.630;2024-01-07T17:54:33;6.68;;;3.05;;
77938;SDS011;67136;47.546;21.630;2024-01-07T17:57:38;7.67;;;3.70;;
77938;SDS011;67136;47.546;21.630;2024-01-07T18:00:41;8.20;;;3.28;;
77938;SDS011;67136;47.546;21.630;2024-01-07T18:03:45;7.93;;;3.30;;
77938;SDS011;67136;47.546;21.630;2024-01-07T18:06:48;6.82;;;3.37;;
77938;SDS011;67136;47.546;21.630;2024-01-07T18:09:51;7.78;;;3.60;;
77938;SDS011;67136;47.546;21.630;2024-01-07T18:12:54;8.88;;;3.65;;
77938;SDS011;67136;47.546;21.630;2024-01-07T18:15:58;5.68;;;3.10;;